Time;durP1;ratioP1;P1;durP2;ratioP2;P2;SDS_P1;SDS_P2;PMS_P1;PMS_P2;Temp;Humidity;BMP_temperature;BMP_pressure;BME280_temperature;BME280_humidity;BME280_pressure;Samples;Min_cycle;Max_cycle;Signal;HPM_P1;HPM_P2
2022/07/10 00:02:58;;;;;;;6.07;1.70;;;19.50;82.00;;;;;;6161285;23;20024;-67
2022/07/10 00:06:02;;;;;;;2.00;1.20;;;19.50;82.10;;;;;;6179207;23;20028;-68
2022/07/10 00:09:06;;;;;;;4.15;1.50;;;19.50;81.60;;;;;;6179270;23;20021;-67
2022/07/10 00:12:10;;;;;;;3.03;1.63;;;19.50;82.20;;;;;;6179178;23;20331;-68
2022/07/10 00:15:15;;;;;;;1.40;1.10;;;19.40;82.30;;;;;;6178745;23;20020;-67
2022/07/10 00:18:19;;;;;;;2.33;1.50;;;19.40;81.40;;;;;;6179226;23;20028;-67
2022/07/10 00:21:23;;;;;;;2.03;1.27;;;19.50;82.10;;;;;;6178780;23;20024;-67
2022/07/10 00:24:27;;;;;;;5.10;1.38;;;19.40;82.40;;;;;;6178412;23;20028;-67
2022/07/10 00:27:31;;;;;;;3.22;1.98;;;19.30;81.80;;;;;;6178578;23;20239;-67
2022/07/10 00:30:35;;;;;;;1.73;1.10;;;19.40;82.40;;;;;;6186801;23;20024;-67
2022/07/10 00:33:40;;;;;;;2.83;1.27;;;19.30;82.00;;;;;;6178002;23;20020;-67
2022/07/10 00:36:44;;;;;;;5.03;2.13;;;19.20;81.90;;;;;;6178402;23;20447;-67
2022/07/10 00:39:49;;;;;;;2.47;1.20;;;19.20;82.60;;;;;;6179876;23;20091;-67
2022/07/10 00:42:53;;;;;;;5.38;1.40;;;19.00;82.80;;;;;;6178162;23;20020;-67
2022/07/10 00:45:57;;;;;;;2.45;1.15;;;19.00;83.10;;;;;;6178415;23;20017;-67
2022/07/10 00:49:00;;;;;;;1.25;1.15;;;18.90;82.90;;;;;;6179939;23;20016;-68
2022/07/10 00:52:08;;;;;;;2.55;1.40;;;18.90;83.30;;;;;;6179109;23;20013;-68
2022/07/10 00:55:13;;;;;;;1.90;1.08;;;18.90;82.90;;;;;;6178710;23;20016;-66
2022/07/10 00:58:18;;;;;;;2.53;1.35;;;18.90;83.30;;;;;;6181912;23;20048;-67
2022/07/10 01:01:25;;;;;;;4.13;1.98;;;18.80;84.00;;;;;;6179262;23;20328;-67
2022/07/10 01:04:29;;;;;;;2.95;1.25;;;18.80;83.70;;;;;;6178419;23;20028;-67
2022/07/10 01:07:33;;;;;;;2.83;1.60;;;18.80;84.00;;;;;;6179400;23;20020;-67
2022/07/10 01:10:38;;;;;;;2.78;1.40;;;18.80;84.00;;;;;;6178909;23;20020;-67
2022/07/10 01:13:43;;;;;;;3.15;1.08;;;18.80;84.50;;;;;;6161378;23;20017;-67
2022/07/10 01:16:48;;;;;;;2.88;1.20;;;18.90;83.70;;;;;;6180218;23;20027;-67
2022/07/10 01:19:52;;;;;;;2.95;1.38;;;19.00;84.30;;;;;;6179236;23;20024;-67
2022/07/10 01:22:56;;;;;;;3.35;1.25;;;19.00;83.80;;;;;;6179163;23;20025;-67
2022/07/10 01:26:02;;;;;;;2.05;1.27;;;18.90;83.70;;;;;;6178651;23;20452;-67
2022/07/10 01:29:06;;;;;;;4.53;1.30;;;18.90;84.20;;;;;;6179561;23;20020;-67
2022/07/10 01:32:10;;;;;;;1.75;1.30;;;18.90;83.70;;;;;;6178697;23;20415;-67
2022/07/10 01:35:15;;;;;;;1.90;1.20;;;18.90;83.80;;;;;;6178070;23;20027;-67
2022/07/10 01:38:19;;;;;;;1.92;1.23;;;18.90;85.10;;;;;;6178831;23;20017;-67
2022/07/10 01:41:24;;;;;;;2.78;1.40;;;18.80;84.20;;;;;;6178107;23;20024;-67
2022/07/10 01:44:28;;;;;;;3.70;1.15;;;18.70;84.50;;;;;;6177701;23;20032;-66
2022/07/10 01:47:32;;;;;;;3.55;1.17;;;18.80;84.50;;;;;;6181638;23;20028;-67
2022/07/10 01:50:36;;;;;;;3.85;1.20;;;18.70;84.90;;;;;;6183988;23;20016;-67
2022/07/10 01:53:40;;;;;;;5.05;1.70;;;18.60;84.50;;;;;;6162828;23;20020;-67
2022/07/10 01:56:44;;;;;;;2.58;1.38;;;18.60;85.00;;;;;;6181215;23;20016;-66
2022/07/10 01:59:48;;;;;;;2.75;1.45;;;18.50;85.40;;;;;;6180119;23;20016;-67
2022/07/10 02:06:15;;;;;;;1.98;1.40;;;18.40;86.20;;;;;;6178724;23;20020;-67
2022/07/10 02:09:19;;;;;;;7.15;1.30;;;18.40;86.30;;;;;;6178439;23;20020;-67
2022/07/10 02:12:23;;;;;;;3.67;1.33;;;18.40;87.00;;;;;;6182704;23;20016;-67
2022/07/10 02:15:27;;;;;;;2.35;1.02;;;18.20;86.10;;;;;;6177858;23;20021;-67
2022/07/10 02:18:32;;;;;;;2.22;1.33;;;18.20;85.50;;;;;;6179121;23;20024;-67
2022/07/10 02:21:36;;;;;;;2.20;1.00;;;18.40;85.10;;;;;;6180336;23;20020;-67
2022/07/10 02:24:40;;;;;;;2.53;1.25;;;18.40;86.00;;;;;;6180869;23;20458;-67
2022/07/10 02:27:44;;;;;;;2.92;1.30;;;18.20;86.10;;;;;;6177290;23;20016;-66
2022/07/10 02:30:47;;;;;;;3.88;1.20;;;18.00;87.10;;;;;;6182057;23;20016;-67
2022/07/10 02:33:52;;;;;;;3.38;1.10;;;17.90;87.30;;;;;;6178173;23;20016;-66
2022/07/10 02:36:56;;;;;;;3.90;1.40;;;17.80;88.50;;;;;;6178330;23;20344;-67
2022/07/10 02:39:59;;;;;;;4.57;1.30;;;17.70;88.70;;;;;;6178477;23;20340;-67
2022/07/10 02:43:03;;;;;;;1.98;1.13;;;17.60;89.80;;;;;;6182166;23;20025;-67
2022/07/10 02:46:07;;;;;;;2.20;1.40;;;17.50;90.60;;;;;;6178131;23;20463;-67
2022/07/10 02:49:11;;;;;;;2.03;1.10;;;17.40;90.40;;;;;;6177901;23;20063;-67
2022/07/10 02:52:15;;;;;;;2.45;1.30;;;17.30;89.60;;;;;;6178401;23;20020;-67
2022/07/10 02:55:19;;;;;;;1.75;1.30;;;17.30;90.50;;;;;;6177079;23;20364;-67
2022/07/10 02:58:23;;;;;;;2.63;1.60;;;17.30;91.10;;;;;;6178312;23;20024;-67
2022/07/10 03:01:27;;;;;;;1.83;1.10;;;17.20;90.50;;;;;;6177248;23;20064;-67
2022/07/10 03:04:31;;;;;;;2.30;1.20;;;17.20;90.70;;;;;;6178758;23;20020;-67
2022/07/10 03:07:35;;;;;;;3.83;1.30;;;17.20;91.60;;;;;;6178844;23;20459;-66
2022/07/10 03:10:40;;;;;;;2.75;1.30;;;17.10;91.90;;;;;;6179558;23;20094;-67
2022/07/10 03:13:44;;;;;;;3.35;1.33;;;17.00;92.20;;;;;;6178443;23;20051;-66
2022/07/10 03:16:48;;;;;;;4.65;1.42;;;16.90;92.50;;;;;;6179047;23;20028;-67
2022/07/10 03:19:52;;;;;;;2.70;1.23;;;16.90;93.00;;;;;;6178658;23;20340;-67
2022/07/10 03:22:55;;;;;;;3.63;1.25;;;16.90;93.00;;;;;;6178526;23;20021;-67
2022/07/10 03:25:59;;;;;;;2.50;1.45;;;16.90;93.10;;;;;;6178747;23;20016;-67
2022/07/10 03:29:03;;;;;;;3.25;1.40;;;16.80;93.10;;;;;;6179332;23;20021;-68
2022/07/10 03:32:08;;;;;;;3.00;1.45;;;16.80;93.30;;;;;;6180157;23;20020;-67
2022/07/10 03:35:12;;;;;;;4.03;1.40;;;16.80;93.50;;;;;;6179475;23;20016;-66
2022/07/10 03:38:15;;;;;;;3.17;1.38;;;16.70;93.50;;;;;;6179483;23;20340;-66
2022/07/10 03:41:19;;;;;;;1.60;1.15;;;16.70;93.90;;;;;;6181495;23;20336;-67
2022/07/10 03:44:24;;;;;;;4.32;1.63;;;16.70;94.30;;;;;;6178563;23;20020;-67
2022/07/10 03:47:28;;;;;;;4.35;1.92;;;16.60;94.50;;;;;;6178279;23;20471;-67
2022/07/10 03:50:32;;;;;;;2.55;1.50;;;16.60;94.80;;;;;;6179498;23;20012;-67
2022/07/10 03:53:37;;;;;;;3.83;1.75;;;16.60;94.70;;;;;;6185356;23;20019;-67
2022/07/10 04:00:04;;;;;;;;;;;16.60;95.20;;;;;;6180217;23;20039;-66
2022/07/10 04:03:16;;;;;;;7.43;1.40;;;16.70;95.00;;;;;;6179038;23;19912;-67
2022/07/10 04:06:20;;;;;;;4.03;1.30;;;16.80;95.10;;;;;;6178497;23;20024;-67
2022/07/10 04:09:24;;;;;;;8.32;1.55;;;16.80;95.50;;;;;;6182514;23;20039;-67
2022/07/10 04:12:28;;;;;;;5.72;1.52;;;16.80;95.00;;;;;;6182482;23;20024;-66
2022/07/10 04:15:32;;;;;;;3.33;1.50;;;16.90;95.40;;;;;;6183078;23;20015;-67
2022/07/10 04:18:35;;;;;;;2.58;1.70;;;16.80;95.70;;;;;;6182254;23;20020;-67
2022/07/10 04:21:39;;;;;;;6.28;1.40;;;16.80;96.30;;;;;;6180542;23;20020;-67
2022/07/10 04:24:44;;;;;;;2.45;1.67;;;16.70;96.80;;;;;;6181347;23;20016;-66
2022/07/10 04:27:48;;;;;;;3.13;1.58;;;16.70;97.10;;;;;;6181267;23;20024;-66
2022/07/10 04:30:52;;;;;;;3.30;1.50;;;16.70;97.40;;;;;;6179343;23;20016;-67
2022/07/10 04:33:57;;;;;;;3.33;1.50;;;16.80;97.50;;;;;;6178413;23;20016;-67
2022/07/10 04:37:01;;;;;;;5.82;1.58;;;17.30;97.40;;;;;;6180113;23;20024;-66
2022/07/10 04:40:06;;;;;;;3.63;1.48;;;19.40;94.40;;;;;;6181895;23;20219;-67
2022/07/10 04:43:10;;;;;;;2.03;1.27;;;22.30;91.20;;;;;;6181545;23;20028;-67
2022/07/10 04:46:13;;;;;;;3.67;1.70;;;24.70;84.90;;;;;;6183124;23;20024;-67
2022/07/10 04:49:17;;;;;;;3.70;1.95;;;26.30;79.30;;;;;;6183961;23;20025;-67
2022/07/10 04:52:22;;;;;;;2.03;1.00;;;25.50;77.90;;;;;;6178810;23;20012;-67
2022/07/10 04:55:26;;;;;;;3.97;1.55;;;24.20;78.50;;;;;;6180223;23;20016;-68
2022/07/10 04:58:30;;;;;;;6.38;1.48;;;22.30;82.00;;;;;;6197456;23;20024;-68
2022/07/10 05:01:33;;;;;;;3.67;1.35;;;21.50;84.90;;;;;;6160884;23;20027;-67
2022/07/10 05:04:37;;;;;;;4.05;1.65;;;22.50;85.40;;;;;;6178897;23;20024;-67
2022/07/10 05:07:42;;;;;;;4.90;1.45;;;24.20;83.00;;;;;;6178891;23;20024;-67
2022/07/10 05:10:45;;;;;;;2.70;1.35;;;26.30;79.60;;;;;;6181612;23;20018;-67
2022/07/10 05:13:49;;;;;;;3.30;1.20;;;27.80;77.40;;;;;;6181764;23;20016;-67
2022/07/10 05:16:53;;;;;;;2.42;1.50;;;28.50;74.50;;;;;;6179006;23;20024;-67
2022/07/10 05:19:58;;;;;;;3.63;1.63;;;28.70;73.40;;;;;;6179630;23;20024;-67
2022/07/10 05:23:02;;;;;;;3.80;1.33;;;27.80;74.00;;;;;;6179158;23;20028;-67
2022/07/10 05:26:06;;;;;;;5.60;1.27;;;28.10;74.20;;;;;;6181664;23;20019;-68
2022/07/10 05:29:09;;;;;;;3.45;1.00;;;28.60;74.90;;;;;;6181180;23;20036;-67
2022/07/10 05:32:14;;;;;;;5.78;1.50;;;28.80;73.50;;;;;;6179169;23;20017;-67
2022/07/10 05:35:18;;;;;;;3.22;1.20;;;27.60;74.70;;;;;;6179456;23;20016;-67
2022/07/10 05:38:22;;;;;;;2.38;1.25;;;28.10;75.10;;;;;;6179924;23;20035;-67
2022/07/10 05:41:26;;;;;;;4.47;1.33;;;29.40;73.30;;;;;;6180573;23;20028;-67
2022/07/10 05:44:30;;;;;;;3.92;1.33;;;27.70;74.00;;;;;;6180613;23;20024;-67
2022/07/10 05:47:34;;;;;;;4.55;1.30;;;28.60;71.40;;;;;;6177528;23;20028;-67
2022/07/10 05:50:38;;;;;;;3.03;1.05;;;28.30;71.30;;;;;;6178558;23;20017;-67
2022/07/10 05:53:42;;;;;;;2.63;1.08;;;28.90;70.70;;;;;;6183020;23;20017;-67
2022/07/10 05:56:46;;;;;;;3.08;1.30;;;29.80;70.90;;;;;;6180891;23;20020;-67
2022/07/10 05:59:50;;;;;;;3.15;1.05;;;30.20;69.80;;;;;;6181947;23;20020;-67
2022/07/10 06:02:55;;;;;;;1.92;1.13;;;30.40;69.40;;;;;;6179981;23;20020;-67
2022/07/10 06:05:59;;;;;;;3.50;1.27;;;30.90;69.30;;;;;;6177091;23;20017;-67
2022/07/10 06:09:04;;;;;;;3.72;0.90;;;31.30;67.30;;;;;;6182052;23;20024;-67
2022/07/10 06:12:09;;;;;;;2.50;1.10;;;30.10;69.20;;;;;;6160905;23;20328;-68
2022/07/10 06:15:13;;;;;;;2.30;1.20;;;28.30;71.00;;;;;;6179124;23;20020;-67
2022/07/10 06:18:17;;;;;;;2.67;1.55;;;28.00;71.50;;;;;;6179485;23;20343;-67
2022/07/10 06:21:22;;;;;;;2.70;1.42;;;27.30;72.00;;;;;;6181465;23;20046;-67
2022/07/10 06:24:26;;;;;;;1.85;1.10;;;26.90;72.70;;;;;;6181580;23;20016;-66
2022/07/10 06:27:31;;;;;;;1.75;1.00;;;27.40;72.50;;;;;;6178398;23;20041;-66
2022/07/10 06:30:35;;;;;;;1.67;0.93;;;28.10;70.90;;;;;;6180138;23;20025;-67
2022/07/10 06:33:39;;;;;;;3.33;1.15;;;28.70;70.20;;;;;;6179411;23;20020;-67
2022/07/10 06:36:43;;;;;;;1.92;1.10;;;27.70;70.10;;;;;;6180849;23;20016;-67
2022/07/10 06:39:48;;;;;;;5.82;1.10;;;28.90;70.20;;;;;;6181021;23;20478;-67
2022/07/10 06:42:52;;;;;;;4.55;1.00;;;29.70;68.90;;;;;;6160449;23;20017;-67
2022/07/10 06:45:58;;;;;;;3.05;1.20;;;30.60;68.00;;;;;;6179726;23;20024;-67
2022/07/10 06:49:03;;;;;;;2.75;0.95;;;30.90;67.20;;;;;;6179988;23;20020;-66
2022/07/10 06:52:07;;;;;;;4.47;1.33;;;30.00;67.60;;;;;;6163605;23;20028;-67
2022/07/10 06:55:12;;;;;;;3.88;0.90;;;30.30;67.80;;;;;;6180480;23;20016;-67
2022/07/10 06:58:15;;;;;;;3.08;1.00;;;31.00;66.90;;;;;;6182503;23;20023;-66
2022/07/10 07:01:19;;;;;;;3.28;0.80;;;30.20;66.60;;;;;;6178445;23;20020;-66
2022/07/10 07:04:23;;;;;;;8.07;1.60;;;29.70;68.40;;;;;;6179729;23;20020;-66
2022/07/10 07:07:27;;;;;;;2.05;0.93;;;30.60;67.80;;;;;;6181477;23;20347;-66
2022/07/10 07:10:32;;;;;;;2.55;1.17;;;31.70;67.10;;;;;;6181551;23;20016;-66
2022/07/10 07:13:36;;;;;;;3.08;1.00;;;31.40;66.80;;;;;;6178952;23;20466;-66
2022/07/10 07:16:44;;;;;;;3.33;0.90;;;29.50;67.80;;;;;;6180180;23;20016;-66
2022/07/10 07:23:18;;;;;;;4.45;0.90;;;30.60;68.10;;;;;;6178499;23;20036;-66
2022/07/10 07:26:22;;;;;;;10.10;1.80;;;30.30;66.90;;;;;;6179840;23;20475;-66
2022/07/10 07:29:26;;;;;;;4.75;0.93;;;29.90;67.10;;;;;;6179749;23;20024;-66
2022/07/10 07:32:30;;;;;;;2.42;0.60;;;31.50;65.40;;;;;;6179156;23;20012;-66
2022/07/10 07:35:34;;;;;;;2.63;1.02;;;32.90;63.00;;;;;;6178808;23;20024;-66
2022/07/10 07:38:38;;;;;;;1.67;0.80;;;32.80;61.30;;;;;;6179539;23;20024;-67
2022/07/10 07:41:42;;;;;;;2.10;0.70;;;33.00;62.40;;;;;;6178863;23;20486;-67
2022/07/10 07:44:47;;;;;;;2.20;0.90;;;33.90;60.70;;;;;;6178307;23;20016;-67
2022/07/10 07:47:54;;;;;;;3.05;0.70;;;34.00;59.70;;;;;;6178895;23;20443;-67
2022/07/10 07:50:58;;;;;;;4.00;0.90;;;34.70;59.40;;;;;;6186459;23;20033;-67
2022/07/10 07:54:02;;;;;;;4.13;0.70;;;34.00;59.30;;;;;;6180042;23;20211;-67
2022/07/10 07:57:06;;;;;;;3.28;0.60;;;35.20;59.40;;;;;;6181597;23;20024;-66
2022/07/10 08:00:12;;;;;;;2.08;0.80;;;35.30;59.60;;;;;;6179385;23;20519;-66
2022/07/10 08:03:16;;;;;;;1.02;0.65;;;33.50;60.10;;;;;;6180429;23;20024;-65
2022/07/10 08:06:20;;;;;;;1.77;0.80;;;34.80;59.40;;;;;;6181576;23;20024;-66
2022/07/10 08:09:24;;;;;;;3.47;0.80;;;34.80;58.70;;;;;;6178586;23;20367;-66
2022/07/10 08:12:28;;;;;;;2.97;0.73;;;35.30;58.10;;;;;;6179616;23;20459;-66
2022/07/10 08:15:34;;;;;;;1.40;0.60;;;35.30;57.60;;;;;;6178274;23;20020;-67
2022/07/10 08:18:38;;;;;;;1.95;0.80;;;37.00;57.40;;;;;;6180337;23;20032;-67
2022/07/10 08:21:43;;;;;;;0.73;0.50;;;35.80;56.10;;;;;;6179019;23;20020;-65
2022/07/10 08:24:47;;;;;;;1.33;0.60;;;34.60;57.00;;;;;;6181737;23;20024;-67
2022/07/10 08:27:51;;;;;;;1.70;0.82;;;35.60;55.20;;;;;;6179689;23;20020;-66
2022/07/10 08:30:55;;;;;;;0.70;0.43;;;37.50;54.60;;;;;;6178818;23;20020;-66
2022/07/10 08:33:59;;;;;;;0.90;0.45;;;37.80;53.90;;;;;;6178686;23;20012;-68
2022/07/10 08:37:04;;;;;;;1.20;0.60;;;36.00;53.50;;;;;;6178878;23;20020;-66
2022/07/10 08:40:10;;;;;;;0.95;0.40;;;34.90;53.50;;;;;;6179277;23;20024;-67
2022/07/10 08:43:15;;;;;;;0.68;0.47;;;37.20;53.90;;;;;;6179437;23;20348;-67
2022/07/10 08:46:19;;;;;;;3.28;0.70;;;39.60;53.10;;;;;;6183268;23;20020;-66
2022/07/10 08:49:28;;;;;;;2.90;0.88;;;38.50;52.40;;;;;;6178767;23;20036;-66
2022/07/10 08:53:09;;;;;;;1.90;0.40;;;37.80;52.70;;;;;;6178838;23;20316;-67
2022/07/10 08:56:14;;;;;;;1.98;0.57;;;38.00;53.30;;;;;;6181299;23;20020;-67
2022/07/10 08:59:22;;;;;;;1.05;0.50;;;38.60;51.70;;;;;;6178520;23;20020;-66
2022/07/10 09:02:26;;;;;;;2.55;0.60;;;40.00;51.20;;;;;;6179522;23;20040;-66
2022/07/10 09:05:30;;;;;;;3.45;0.50;;;39.70;50.50;;;;;;6183157;23;20023;-66
2022/07/10 09:08:35;;;;;;;1.42;0.60;;;41.00;50.00;;;;;;6183629;23;20028;-66
2022/07/10 09:11:42;;;;;;;1.33;0.50;;;38.80;49.50;;;;;;6179035;23;20016;-66
2022/07/10 09:14:46;;;;;;;1.00;0.40;;;39.60;50.20;;;;;;6178424;23;20407;-66
2022/07/10 09:18:01;;;;;;;0.73;0.50;;;40.30;49.60;;;;;;6179796;23;20020;-66
2022/07/10 09:21:11;;;;;;;2.20;0.50;;;37.50;50.00;;;;;;6178886;23;20336;-66
2022/07/10 09:24:19;;;;;;;1.30;0.50;;;40.00;49.90;;;;;;6177547;23;20036;-66
2022/07/10 09:27:22;;;;;;;1.38;0.40;;;41.40;48.50;;;;;;6177921;23;20280;-67
2022/07/10 09:30:59;;;;;;;0.55;0.40;;;43.00;46.90;;;;;;6159547;23;20020;-68
2022/07/10 09:34:04;;;;;;;1.38;0.50;;;44.70;46.30;;;;;;6180055;23;20016;-67
2022/07/10 09:37:26;;;;;;;0.98;0.45;;;44.20;46.80;;;;;;6178099;23;20028;-66
2022/07/10 09:40:30;;;;;;;1.75;0.43;;;44.20;47.00;;;;;;6178668;23;20016;-66
2022/07/10 09:43:58;;;;;;;0.60;0.30;;;45.20;46.60;;;;;;6178134;23;20012;-64
2022/07/10 09:47:02;;;;;;;0.70;0.40;;;46.60;46.20;;;;;;6181072;23;20321;-65
2022/07/10 09:50:29;;;;;;;3.22;0.63;;;46.70;46.20;;;;;;6178861;23;20455;-65
2022/07/10 09:53:37;;;;;;;1.30;0.40;;;48.00;45.30;;;;;;6181090;23;20463;-67
2022/07/10 09:56:51;;;;;;;1.10;0.40;;;47.50;45.50;;;;;;6178690;23;20040;-66
2022/07/10 09:59:56;;;;;;;1.88;0.50;;;47.50;45.20;;;;;;6181376;23;20028;-65
2022/07/10 10:03:05;;;;;;;0.95;0.38;;;44.30;44.90;;;;;;6180331;23;20016;-66
2022/07/10 10:06:14;;;;;;;0.93;0.60;;;40.80;47.70;;;;;;6178501;23;20332;-66
2022/07/10 10:09:31;;;;;;;0.38;0.35;;;38.30;47.30;;;;;;6178807;23;20020;-66
2022/07/10 10:12:42;;;;;;;0.50;0.38;;;40.00;47.50;;;;;;6178159;23;20447;-66
2022/07/10 10:15:48;;;;;;;1.55;0.43;;;43.60;46.80;;;;;;6179672;23;20489;-66
2022/07/10 10:22:18;;;;;;;1.02;0.60;;;42.90;45.90;;;;;;6182245;23;20022;-66
2022/07/10 10:25:24;;;;;;;1.10;0.50;;;36.90;48.40;;;;;;6179563;23;20028;-66
2022/07/10 10:28:33;;;;;;;2.50;0.60;;;35.80;49.40;;;;;;6182198;23;20020;-66
2022/07/10 10:31:38;;;;;;;1.65;0.55;;;37.50;49.40;;;;;;6182220;23;20343;-66
2022/07/10 10:34:43;;;;;;;0.70;0.32;;;40.70;48.50;;;;;;6181189;23;20020;-66
2022/07/10 10:37:51;;;;;;;1.10;0.45;;;43.50;47.10;;;;;;6182019;23;20017;-66
2022/07/10 10:41:24;;;;;;;0.65;0.40;;;45.00;46.10;;;;;;6181686;23;20020;-66
2022/07/10 10:44:31;;;;;;;1.63;0.52;;;43.10;46.20;;;;;;6178785;23;20028;-65
2022/07/10 10:48:10;;;;;;;1.00;0.43;;;43.90;46.70;;;;;;6178907;23;20024;-65
2022/07/10 10:51:14;;;;;;;0.40;0.40;;;41.90;46.40;;;;;;6184660;23;20020;-66
2022/07/10 10:54:18;;;;;;;2.03;0.50;;;43.50;47.00;;;;;;6161760;23;20024;-67
2022/07/10 10:57:43;;;;;;;0.90;0.40;;;45.50;45.90;;;;;;6179971;23;20016;-66
2022/07/10 11:00:48;;;;;;;0.80;0.60;;;47.00;46.20;;;;;;6179693;23;20024;-65
2022/07/10 11:04:04;;;;;;;1.02;0.50;;;47.70;44.80;;;;;;6180987;23;20023;-65
2022/07/10 11:07:08;;;;;;;1.75;0.40;;;47.80;44.60;;;;;;6182454;23;20494;-64
2022/07/10 11:10:33;;;;;;;1.35;0.50;;;47.50;44.30;;;;;;6181593;23;20024;-66
2022/07/10 11:13:38;;;;;;;1.10;0.57;;;46.20;45.10;;;;;;6180280;23;20020;-66
2022/07/10 11:16:47;;;;;;;1.10;0.50;;;45.30;45.50;;;;;;6179759;23;20329;-67
2022/07/10 11:19:53;;;;;;;0.75;0.50;;;45.90;45.20;;;;;;6180997;23;20024;-66
2022/07/10 11:23:30;;;;;;;1.83;0.50;;;45.90;44.90;;;;;;6163573;23;20024;-67
2022/07/10 11:26:54;;;;;;;3.13;0.60;;;45.90;45.00;;;;;;6180360;23;20021;-66
2022/07/10 11:29:59;;;;;;;0.65;0.43;;;44.20;46.00;;;;;;6180148;23;20032;-66
2022/07/10 11:33:05;;;;;;;1.25;0.40;;;41.50;47.10;;;;;;6186104;23;20328;-65
2022/07/10 11:36:13;;;;;;;2.97;0.65;;;40.20;46.90;;;;;;6161427;23;20569;-66
2022/07/10 11:39:17;;;;;;;2.53;0.60;;;39.40;48.20;;;;;;6179540;23;20020;-65
2022/07/10 11:42:21;;;;;;;0.60;0.50;;;40.80;47.80;;;;;;6179355;23;20020;-65
2022/07/10 11:45:30;;;;;;;2.58;0.60;;;42.30;47.40;;;;;;6178682;23;20036;-65
2022/07/10 11:48:42;;;;;;;1.00;0.47;;;43.10;47.10;;;;;;6178825;23;20020;-66
2022/07/10 11:51:45;;;;;;;2.53;0.60;;;42.40;47.00;;;;;;6179468;23;20016;-66
2022/07/10 11:54:49;;;;;;;0.57;0.40;;;40.10;47.10;;;;;;6179449;23;20020;-67
2022/07/10 11:57:53;;;;;;;1.30;0.50;;;38.70;48.20;;;;;;6178637;23;20016;-65
2022/07/10 12:01:06;;;;;;;1.73;0.70;;;38.30;48.90;;;;;;6180789;23;20020;-65
2022/07/10 12:04:10;;;;;;;1.58;0.70;;;36.30;50.30;;;;;;6178531;23;20020;-66
2022/07/10 12:07:14;;;;;;;1.48;0.47;;;37.10;49.20;;;;;;6178337;23;20023;-65
2022/07/10 12:10:19;;;;;;;1.95;0.60;;;38.00;49.10;;;;;;6179559;23;20339;-65
2022/07/10 12:13:22;;;;;;;2.45;0.70;;;39.10;48.30;;;;;;6179326;23;20012;-66
2022/07/10 12:16:26;;;;;;;1.00;0.40;;;39.50;48.30;;;;;;6179513;23;20605;-65
2022/07/10 12:19:37;;;;;;;0.98;0.65;;;38.90;48.20;;;;;;6179444;23;20591;-66
2022/07/10 12:22:41;;;;;;;2.58;0.70;;;38.70;48.80;;;;;;6178904;23;20075;-66
2022/07/10 12:25:50;;;;;;;2.47;0.85;;;39.10;48.20;;;;;;6178754;23;20020;-66
2022/07/10 12:28:55;;;;;;;3.90;0.52;;;39.50;47.90;;;;;;6183405;23;20459;-66
2022/07/10 12:32:01;;;;;;;1.35;0.73;;;39.80;48.50;;;;;;6183364;23;20021;-65
2022/07/10 12:35:12;;;;;;;0.95;0.65;;;40.30;47.90;;;;;;6181945;23;20027;-65
2022/07/10 12:38:20;;;;;;;1.08;0.70;;;40.50;47.80;;;;;;6179542;23;20016;-65
2022/07/10 12:41:25;;;;;;;1.40;0.70;;;39.00;48.20;;;;;;6181995;23;20020;-65
2022/07/10 12:44:36;;;;;;;1.35;0.60;;;38.90;48.10;;;;;;6181864;23;20340;-65
2022/07/10 12:47:48;;;;;;;2.53;0.60;;;36.70;48.00;;;;;;6179393;23;20020;-66
2022/07/10 12:50:53;;;;;;;1.50;0.52;;;37.50;48.90;;;;;;6181045;23;20024;-66
2022/07/10 12:53:57;;;;;;;1.52;0.65;;;38.40;48.80;;;;;;6182748;23;20021;-65
2022/07/10 12:57:04;;;;;;;1.70;0.80;;;37.30;48.40;;;;;;6178605;23;20336;-65
2022/07/10 13:00:13;;;;;;;2.13;1.02;;;37.70;48.30;;;;;;6178993;23;20044;-66
2022/07/10 13:03:22;;;;;;;1.52;0.70;;;37.70;48.90;;;;;;6178549;23;20020;-66
2022/07/10 13:06:35;;;;;;;1.58;0.50;;;38.10;48.60;;;;;;6181162;23;20028;-66
2022/07/10 13:09:40;;;;;;;1.40;0.80;;;37.80;49.50;;;;;;6182276;23;20466;-66
2022/07/10 13:12:44;;;;;;;1.23;0.80;;;38.20;48.20;;;;;;6164075;23;20020;-66
2022/07/10 13:15:56;;;;;;;2.33;0.80;;;38.20;48.80;;;;;;6181514;23;20339;-67
2022/07/10 13:19:01;;;;;;;2.47;0.82;;;38.80;47.90;;;;;;6182282;23;20024;-66
2022/07/10 13:22:05;;;;;;;2.35;0.82;;;36.90;48.00;;;;;;6181392;23;20024;-65
2022/07/10 13:25:09;;;;;;;1.23;0.70;;;36.30;49.50;;;;;;6180808;23;20020;-65
2022/07/10 13:28:16;;;;;;;1.23;0.60;;;37.00;49.40;;;;;;6181978;23;20046;-65
2022/07/10 13:31:19;;;;;;;1.48;0.95;;;35.50;49.70;;;;;;6180572;23;20016;-65
2022/07/10 13:34:23;;;;;;;2.10;0.77;;;35.20;50.20;;;;;;6179870;23;20016;-65
2022/07/10 13:37:27;;;;;;;0.90;0.60;;;35.70;50.70;;;;;;6179923;23;20020;-67
2022/07/10 13:40:33;;;;;;;1.17;0.60;;;36.70;49.40;;;;;;6162331;23;20020;-66
2022/07/10 13:43:37;;;;;;;1.17;0.60;;;37.30;49.00;;;;;;6180201;23;20024;-67
2022/07/10 13:46:41;;;;;;;0.80;0.60;;;37.10;48.80;;;;;;6180356;23;20024;-66
2022/07/10 13:49:45;;;;;;;2.67;0.63;;;37.20;49.20;;;;;;6162028;23;20020;-65
2022/07/10 13:52:49;;;;;;;1.65;0.82;;;37.10;49.00;;;;;;6178937;23;20016;-65
2022/07/10 13:55:53;;;;;;;1.45;0.70;;;37.30;49.60;;;;;;6177656;23;20024;-65
2022/07/10 13:58:57;;;;;;;3.65;0.80;;;35.30;49.30;;;;;;6180440;23;20410;-66
2022/07/10 14:02:01;;;;;;;1.60;0.70;;;33.90;50.30;;;;;;6178114;23;20475;-65
2022/07/10 14:05:07;;;;;;;1.92;0.80;;;33.70;51.60;;;;;;6178807;23;20344;-66
2022/07/10 14:08:11;;;;;;;1.88;0.73;;;34.80;50.80;;;;;;6160118;23;20028;-66
2022/07/10 14:11:17;;;;;;;0.88;0.70;;;35.30;50.40;;;;;;6196012;23;20042;-65
2022/07/10 14:14:24;;;;;;;2.38;0.60;;;36.00;49.80;;;;;;6179059;23;20459;-65
2022/07/10 14:17:29;;;;;;;1.80;0.70;;;36.60;48.80;;;;;;6195468;23;20028;-65
2022/07/10 14:21:02;;;;;;;1.63;0.60;;;36.80;48.80;;;;;;6179277;23;20068;-65
2022/07/10 14:23:58;;;;;;;2.17;0.60;;;36.80;49.00;;;;;;6179319;23;20028;-64
2022/07/10 14:27:03;;;;;;;1.55;0.80;;;36.80;49.10;;;;;;6178089;23;20024;-65
2022/07/10 14:30:08;;;;;;;0.77;0.60;;;36.80;49.20;;;;;;6160044;23;20016;-65
2022/07/10 14:33:12;;;;;;;1.70;0.80;;;36.60;49.20;;;;;;6178253;23;20027;-65
2022/07/10 14:36:16;;;;;;;1.42;0.68;;;36.40;49.10;;;;;;6178860;23;20332;-66
2022/07/10 14:39:21;;;;;;;1.50;0.68;;;36.40;48.30;;;;;;6177746;23;20020;-66
2022/07/10 14:42:24;;;;;;;1.65;0.63;;;36.50;48.80;;;;;;6199876;23;20020;-66
2022/07/10 14:45:28;;;;;;;9.95;1.20;;;36.40;48.70;;;;;;6185304;23;20026;-67
2022/07/10 14:48:34;;;;;;;1.42;0.68;;;36.30;49.00;;;;;;6177988;23;20024;-65
2022/07/10 14:51:39;;;;;;;2.05;0.60;;;36.30;49.00;;;;;;6178484;23;20467;-66
2022/07/10 14:54:44;;;;;;;3.22;0.80;;;36.20;48.20;;;;;;6178956;23;20016;-65
2022/07/10 14:57:49;;;;;;;1.48;0.85;;;35.90;49.10;;;;;;6179197;23;20044;-66
2022/07/10 15:00:53;;;;;;;3.05;0.55;;;35.90;48.80;;;;;;6182070;23;20466;-65
2022/07/10 15:03:58;;;;;;;4.78;0.60;;;35.80;48.70;;;;;;6178543;23;20028;-65
2022/07/10 15:07:02;;;;;;;1.90;0.68;;;35.70;48.70;;;;;;6182518;23;20028;-64
2022/07/10 15:10:08;;;;;;;1.88;0.80;;;35.60;48.80;;;;;;6181416;23;20020;-65
2022/07/10 15:13:13;;;;;;;2.72;0.73;;;35.00;49.20;;;;;;6184035;23;20016;-66
2022/07/10 15:16:18;;;;;;;4.53;0.90;;;35.20;49.70;;;;;;6166660;23;20020;-66
2022/07/10 15:19:22;;;;;;;0.70;0.60;;;35.20;48.90;;;;;;6179672;23;20020;-65
2022/07/10 15:22:26;;;;;;;2.65;0.80;;;35.10;50.10;;;;;;6178901;23;20020;-66
2022/07/10 15:25:30;;;;;;;2.30;0.70;;;35.20;50.30;;;;;;6178437;23;20028;-65
2022/07/10 15:28:34;;;;;;;1.40;0.80;;;35.20;50.00;;;;;;6181888;23;20024;-65
2022/07/10 15:31:38;;;;;;;1.27;0.60;;;35.20;50.00;;;;;;6183004;23;20328;-66
2022/07/10 15:34:42;;;;;;;4.30;0.70;;;34.80;49.90;;;;;;6183521;23;20343;-65
2022/07/10 15:37:46;;;;;;;2.58;0.68;;;35.10;50.30;;;;;;6184001;23;20020;-65
2022/07/10 15:40:50;;;;;;;0.65;0.50;;;35.20;49.70;;;;;;6162072;23;20336;-65
2022/07/10 15:43:55;;;;;;;8.10;0.88;;;34.90;48.90;;;;;;6180848;23;20020;-64
2022/07/10 15:46:59;;;;;;;1.38;0.80;;;34.70;50.00;;;;;;6182481;23;20014;-65
2022/07/10 15:50:04;;;;;;;0.93;0.57;;;35.00;49.70;;;;;;6179739;23;20020;-65
2022/07/10 15:53:08;;;;;;;1.08;0.60;;;35.10;50.10;;;;;;6182944;23;20035;-65
2022/07/10 15:56:13;;;;;;;2.08;0.60;;;35.20;49.50;;;;;;6182574;23;20017;-65
2022/07/10 15:59:22;;;;;;;1.13;0.70;;;35.30;49.00;;;;;;6180533;23;20359;-65
2022/07/10 16:02:28;;;;;;;1.20;0.70;;;35.10;49.70;;;;;;6181519;23;20048;-66
2022/07/10 16:05:32;;;;;;;1.98;0.70;;;34.90;50.00;;;;;;6179354;23;20498;-66
2022/07/10 16:08:36;;;;;;;1.35;0.88;;;34.90;49.20;;;;;;6180726;23;20044;-65
2022/07/10 16:11:40;;;;;;;1.45;0.88;;;33.70;49.70;;;;;;6180963;23;20017;-65
2022/07/10 16:14:44;;;;;;;1.80;0.70;;;33.70;50.30;;;;;;6181350;23;20020;-65
2022/07/10 16:17:49;;;;;;;1.00;0.75;;;34.00;50.50;;;;;;6182509;23;20040;-65
2022/07/10 16:20:54;;;;;;;1.48;0.70;;;34.20;50.60;;;;;;6179343;23;20475;-65
2022/07/10 16:23:59;;;;;;;1.77;0.70;;;34.10;51.20;;;;;;6179435;23;20020;-64